Church, Iowa
Current Conditions -  °F | °C
As of 4:55 PM on Thursday 23 Oct 2014 (Local Time) from KDEH Reporting Station
Haze Haze  
Wind Chill: 52°   Ceiling: 300
Heat Index: 52°   Visibility: 1mi
Dew Point: 50°   Wind: 0mph
Humidity: 94%   Direction: NA
Pressure: 30.02"   Gusts: NA
Location:  43.3826°N, 91.3585°W
Report Text: KDEH 232155Z AUTO 00000KT 1SM BR OVC003 11/10 A3002 RMK AO2
Loading
Personal Weather Stations






























Interactive Weather Map
Tropical Storm Tracking
New forecast layout! Learn more

10-Day Weather Forecast

Advertisements
Track Severe Weather on mobile